Clinton, OK

2:23 AM CDT on March 24, 2017 (GMT -0500)
Clinton | | Change Station
Active Advisory: Wind Advisory

Elev 1578 ft 35.52 °N, 98.97 °W | Updated 18 seconds ago

Overcast
Overcast
68.9 °F
Feels Like 68.9 °F
N
8.8
Wind Variable Wind from North
Gusts 13.7 mph

Today
High -- | Low -- °F
--% Chance of Precip.
Yesterday
High -- | Low -- °F
Precip. -- in
Pressure 29.72 in
Visibility 10.0 miles
Clouds Overcast 6000 ft
Dew Point 49 °F
Humidity 40%
Rainfall 0.00 in
Snow Depth Not available.
7:33 AM 7:51 PM
Waning Crescent, 17% visible
METAR KCLK 240735Z AUTO 18020G27KT 10SM OVC060 20/04 A2972 RMK AO2
Pressure 29.72 in
Visibility 10.0 miles
Clouds Overcast 6000 ft
Dew Point 49 °F
Humidity 40%
Rainfall 0.00 in
Snow Depth Not available.
7:33 AM 7:51 PM
Waning Crescent, 17% visible
METAR KCLK 240735Z AUTO 18020G27KT 10SM OVC060 20/04 A2972 RMK AO2

Get Your Daily Forecast Email!

Thanks for signing up!

Be on the lookout for a verification email in your inbox.

You'll start receiving severe weather alerts in your inbox..

×

10-Day Weather Forecast

Almanac

Astronomy

Mar. 24, 2017 Rise Set
Actual Time
Civil Twilight
Nautical Twilight
Astronomical Twilight
Moon
Length of Visible Light
Length of Day
Tomorrow will be .
, % of the Moon is Illuminated

Today's Extremes

State Highs State Lows

Community

WunderPhotos

Upload Photos

1,962,540 photos uploaded!

WunderBlog® & News

Nearby

Air Quality

  Air Quality AQ Index Pollutant
Not available.

Snow Depth

Station Depth Elevation

Earthquake Activity

City Distance Mag. Time & Date
Minimum magnitude displayed is 2.5.

Earthquake Activity

City Distance Mag. Time & Date
Minimum magnitude displayed is 2.5.

Coastal Water Temperatures

Place Temperature

Stations

Nearby Weather Stations

Station Location Temp. Windchill Dew Point Humidity Wind Precip. Elev Updated Type
                   

Watches & Warnings

Wind Advisory
Issued: 11:22 PM CDT Mar. 23, 2017 – National Weather Service

... Wind Advisory now in effect until 4 am CDT Friday...

* timing... until midnight.

* Winds... 30 to 35 mph. Gusts 45 mph.

Precautionary/preparedness actions...

A Wind Advisory means that sustained winds greater than 30 mph
are expected. Winds this strong can make driving difficult,
especially for high profile vehicles. Use extra caution.



Kurtz